Time,TemperatureF,DewpointF,PressureIn,WindDirection,WindDirectionDegrees,WindSpeedMPH,WindSpeedGustMPH,Humidity,HourlyPrecipIn,Conditions,Clouds,dailyrainin,SolarRadiationWatts/m^2,SoftwareType,DateUTC
2013-09-17 00:03:00,43.5,40.8,30.27,South,185,0.0,0.0,90,0.00,,,0.00,0,Wunderground v.1.15,2013-09-17 04:03:00,
2013-09-17 00:08:00,43.4,40.7,30.27,South,185,0.0,0.0,90,0.00,,,0.00,0,Wunderground v.1.15,2013-09-17 04:08:00,
2013-09-17 00:13:00,43.3,40.8,30.27,South,185,0.0,0.0,91,0.00,,,0.00,0,Wunderground v.1.15,2013-09-17 04:13:00,
2013-09-17 00:18:00,43.2,40.8,30.28,South,185,0.0,0.0,91,0.00,,,0.00,0,Wunderground v.1.15,2013-09-17 04:18:00,
2013-09-17 00:23:00,43.1,40.7,30.27,South,185,0.0,0.0,91,0.00,,,0.00,0,Wunderground v.1.15,2013-09-17 04:23:00,
2013-09-17 00:28:00,42.9,40.5,30.28,South,185,0.0,0.0,91,0.00,,,0.00,0,Wunderground v.1.15,2013-09-17 04:28:00,
2013-09-17 00:33:00,42.8,40.4,30.28,South,185,0.0,0.0,91,0.00,,,0.00,0,Wunderground v.1.15,2013-09-17 04:33:00,
2013-09-17 00:38:00,42.8,40.4,30.28,South,185,0.0,0.0,91,0.00,,,0.00,0,Wunderground v.1.15,2013-09-17 04:38:00,
2013-09-17 00:48:00,42.6,39.9,30.28,South,185,0.0,0.0,90,0.00,,,0.00,0,Wunderground v.1.15,2013-09-17 04:48:00,
2013-09-17 00:53:00,42.5,39.8,30.28,South,185,0.0,0.0,90,0.00,,,0.00,0,Wunderground v.1.15,2013-09-17 04:53:00,
2013-09-17 00:58:00,42.4,39.7,30.28,South,185,0.0,0.0,90,0.00,,,0.00,0,Wunderground v.1.15,2013-09-17 04:58:00,
2013-09-17 01:03:00,42.3,39.6,30.29,South,185,0.0,0.0,90,0.00,,,0.00,0,Wunderground v.1.15,2013-09-17 05:03:00,
2013-09-17 01:08:00,42.1,39.7,30.29,South,185,0.0,0.0,91,0.00,,,0.00,0,Wunderground v.1.15,2013-09-17 05:08:00,
2013-09-17 01:18:00,41.8,39.4,30.30,South,185,0.0,0.0,91,0.00,,,0.00,0,Wunderground v.1.15,2013-09-17 05:18:00,
2013-09-17 01:23:00,41.6,39.2,30.30,South,185,0.0,0.0,91,0.00,,,0.00,0,Wunderground v.1.15,2013-09-17 05:23:00,
2013-09-17 01:28:00,41.5,39.1,30.30,South,185,0.0,0.0,91,0.00,,,0.00,0,Wunderground v.1.15,2013-09-17 05:28:00,
2013-09-17 01:33:00,41.3,38.9,30.30,South,185,0.0,0.0,91,0.00,,,0.00,0,Wunderground v.1.15,2013-09-17 05:33:00,
2013-09-17 01:38:00,41.2,39.1,30.30,South,185,0.0,0.0,92,0.00,,,0.00,0,Wunderground v.1.15,2013-09-17 05:38:00,
2013-09-17 01:43:00,41.0,38.9,30.30,South,185,0.0,0.0,92,0.00,,,0.00,0,Wunderground v.1.15,2013-09-17 05:43:00,
2013-09-17 01:48:00,40.9,38.8,30.30,South,185,0.0,0.0,92,0.00,,,0.00,0,Wunderground v.1.15,2013-09-17 05:48:00,
2013-09-17 01:58:00,40.8,38.7,30.30,South,185,0.0,0.0,92,0.00,,,0.00,0,Wunderground v.1.15,2013-09-17 05:58:00,
2013-09-17 02:03:00,40.7,38.6,30.30,South,185,0.0,0.0,92,0.00,,,0.00,0,Wunderground v.1.15,2013-09-17 06:03:00,
2013-09-17 02:08:00,40.6,38.5,30.31,South,185,0.0,0.0,92,0.00,,,0.00,0,Wunderground v.1.15,2013-09-17 06:08:00,
2013-09-17 02:13:00,40.5,38.4,30.31,South,185,0.0,0.0,92,0.00,,,0.00,0,Wunderground v.1.15,2013-09-17 06:13:00,
2013-09-17 02:18:00,40.4,38.3,30.31,South,185,0.0,0.0,92,0.00,,,0.00,0,Wunderground v.1.15,2013-09-17 06:18:00,
2013-09-17 02:28:00,40.2,38.3,30.31,South,185,0.0,0.0,93,0.00,,,0.00,0,Wunderground v.1.15,2013-09-17 06:28:00,
2013-09-17 02:33:00,40.2,38.3,30.31,South,185,0.0,0.0,93,0.00,,,0.00,0,Wunderground v.1.15,2013-09-17 06:33:00,
2013-09-17 02:38:00,40.0,38.1,30.31,South,185,0.0,0.0,93,0.00,,,0.00,0,Wunderground v.1.15,2013-09-17 06:38:00,
2013-09-17 02:43:00,39.9,38.0,30.31,South,185,0.0,0.0,93,0.00,,,0.00,0,Wunderground v.1.15,2013-09-17 06:43:00,
2013-09-17 02:48:00,39.8,37.9,30.32,South,185,0.0,0.0,93,0.00,,,0.00,0,Wunderground v.1.15,2013-09-17 06:48:00,
2013-09-17 02:58:00,39.6,38.0,30.32,South,185,0.0,0.0,94,0.00,,,0.00,0,Wunderground v.1.15,2013-09-17 06:58:00,
2013-09-17 03:03:00,39.5,37.9,30.32,South,185,0.0,0.0,94,0.00,,,0.00,0,Wunderground v.1.15,2013-09-17 07:03:00,
2013-09-17 03:08:00,39.4,37.8,30.32,South,185,0.0,0.0,94,0.00,,,0.00,0,Wunderground v.1.15,2013-09-17 07:08:00,
2013-09-17 03:13:00,39.4,37.8,30.32,South,185,0.0,0.0,94,0.00,,,0.00,0,Wunderground v.1.15,2013-09-17 07:13:00,
2013-09-17 03:18:00,39.3,37.7,30.32,South,185,0.0,0.0,94,0.00,,,0.00,0,Wunderground v.1.15,2013-09-17 07:18:00,
2013-09-17 03:28:00,39.1,37.5,30.32,South,185,0.0,0.0,94,0.00,,,0.00,0,Wunderground v.1.15,2013-09-17 07:28:00,
2013-09-17 03:33:00,39.0,37.4,30.32,South,185,0.0,0.0,94,0.00,,,0.00,0,Wunderground v.1.15,2013-09-17 07:33:00,
2013-09-17 03:38:00,38.9,37.3,30.32,South,185,0.0,0.0,94,0.00,,,0.00,0,Wunderground v.1.15,2013-09-17 07:38:00,
2013-09-17 03:43:00,38.9,37.3,30.32,South,185,0.0,0.0,94,0.00,,,0.00,0,Wunderground v.1.15,2013-09-17 07:43:00,
2013-09-17 03:48:00,38.8,37.5,30.32,South,185,0.0,0.0,95,0.00,,,0.00,0,Wunderground v.1.15,2013-09-17 07:48:00,
2013-09-17 03:53:00,38.7,37.1,30.32,South,185,0.0,0.0,94,0.00,,,0.00,0,Wunderground v.1.15,2013-09-17 07:53:00,
2013-09-17 04:03:00,38.6,37.0,30.32,South,185,0.0,0.0,94,0.00,,,0.00,0,Wunderground v.1.15,2013-09-17 08:03:00,
2013-09-17 04:08:00,38.5,36.9,30.32,South,185,0.0,0.0,94,0.00,,,0.00,0,Wunderground v.1.15,2013-09-17 08:08:00,
2013-09-17 04:13:00,38.4,36.8,30.32,South,185,0.0,0.0,94,0.00,,,0.00,0,Wunderground v.1.15,2013-09-17 08:13:00,
2013-09-17 04:18:00,38.2,36.6,30.32,South,185,0.0,0.0,94,0.00,,,0.00,0,Wunderground v.1.15,2013-09-17 08:18:00,
2013-09-17 04:23:00,38.0,36.4,30.32,South,185,0.0,0.0,94,0.00,,,0.00,0,Wunderground v.1.15,2013-09-17 08:23:00,
2013-09-17 04:33:00,37.8,36.2,30.33,South,185,0.0,0.0,94,0.00,,,0.00,0,Wunderground v.1.15,2013-09-17 08:33:00,
2013-09-17 04:38:00,37.7,36.1,30.33,South,185,0.0,0.0,94,0.00,,,0.00,0,Wunderground v.1.15,2013-09-17 08:38:00,
2013-09-17 04:43:00,37.6,36.3,30.33,South,185,0.0,0.0,95,0.00,,,0.00,0,Wunderground v.1.15,2013-09-17 08:43:00,
2013-09-17 04:48:00,37.5,35.9,30.33,South,185,0.0,0.0,94,0.00,,,0.00,0,Wunderground v.1.15,2013-09-17 08:48:00,
2013-09-17 04:53:00,37.5,35.9,30.33,South,185,0.0,0.0,94,0.00,,,0.00,0,Wunderground v.1.15,2013-09-17 08:53:00,
2013-09-17 04:58:00,37.4,36.1,30.33,South,185,0.0,0.0,95,0.00,,,0.00,0,Wunderground v.1.15,2013-09-17 08:58:00,
2013-09-17 05:08:00,37.3,36.0,30.33,South,185,0.0,0.0,95,0.00,,,0.00,0,Wunderground v.1.15,2013-09-17 09:08:00,
2013-09-17 05:13:00,37.2,35.9,30.33,South,185,0.0,0.0,95,0.00,,,0.00,0,Wunderground v.1.15,2013-09-17 09:13:00,
2013-09-17 05:18:00,37.3,36.0,30.34,South,185,0.0,0.0,95,0.00,,,0.00,0,Wunderground v.1.15,2013-09-17 09:18:00,
2013-09-17 05:23:00,37.2,35.9,30.34,South,185,0.0,0.0,95,0.00,,,0.00,0,Wunderground v.1.15,2013-09-17 09:23:00,
2013-09-17 05:28:00,37.2,35.9,30.34,South,185,0.0,0.0,95,0.00,,,0.00,0,Wunderground v.1.15,2013-09-17 09:28:00,
2013-09-17 05:33:00,37.2,35.9,30.34,South,185,0.0,0.0,95,0.00,,,0.00,0,Wunderground v.1.15,2013-09-17 09:33:00,
2013-09-17 05:43:00,36.9,35.6,30.34,South,185,0.0,0.0,95,0.00,,,0.00,0,Wunderground v.1.15,2013-09-17 09:43:00,
2013-09-17 05:48:00,36.7,36.7,30.35,South,185,0.0,0.0,100,0.00,,,0.00,0,Wunderground v.1.15,2013-09-17 09:48:00,
2013-09-17 05:53:00,36.6,35.3,30.35,South,185,0.0,0.0,95,0.00,,,0.00,0,Wunderground v.1.15,2013-09-17 09:53:00,
2013-09-17 05:58:00,36.5,35.2,30.35,South,185,0.0,0.0,95,0.00,,,0.00,0,Wunderground v.1.15,2013-09-17 09:58:00,
2013-09-17 06:03:00,36.5,35.2,30.35,South,185,0.0,0.0,95,0.00,,,0.00,0,Wunderground v.1.15,2013-09-17 10:03:00,
2013-09-17 06:13:00,36.3,35.0,30.36,South,185,0.0,0.0,95,0.00,,,0.00,0,Wunderground v.1.15,2013-09-17 10:13:00,
2013-09-17 06:18:00,36.2,34.9,30.36,South,185,0.0,0.0,95,0.00,,,0.00,0,Wunderground v.1.15,2013-09-17 10:18:00,
2013-09-17 06:23:00,36.1,34.8,30.36,South,185,0.0,0.0,95,0.00,,,0.00,0,Wunderground v.1.15,2013-09-17 10:23:00,
2013-09-17 06:28:00,36.0,34.7,30.36,South,185,0.0,0.0,95,0.00,,,0.00,0,Wunderground v.1.15,2013-09-17 10:28:00,
2013-09-17 06:33:00,35.9,34.6,30.37,South,185,0.0,0.0,95,0.00,,,0.00,0,Wunderground v.1.15,2013-09-17 10:33:00,
2013-09-17 06:43:00,35.8,34.8,30.38,South,185,0.0,0.0,96,0.00,,,0.00,0,Wunderground v.1.15,2013-09-17 10:43:00,
2013-09-17 06:48:00,35.9,34.9,30.38,South,185,0.0,0.0,96,0.00,,,0.00,5,Wunderground v.1.15,2013-09-17 10:48:00,
2013-09-17 06:53:00,35.9,34.9,30.38,South,185,0.0,0.0,96,0.00,,,0.00,5,Wunderground v.1.15,2013-09-17 10:53:00,
2013-09-17 06:58:00,35.9,34.9,30.38,South,185,0.0,0.0,96,0.00,,,0.00,7,Wunderground v.1.15,2013-09-17 10:58:00,
2013-09-17 07:03:00,35.9,34.9,30.39,South,185,0.0,0.0,96,0.00,,,0.00,7,Wunderground v.1.15,2013-09-17 11:03:00,
2013-09-17 07:08:00,35.9,34.9,30.39,South,185,0.0,0.0,96,0.00,,,0.00,9,Wunderground v.1.15,2013-09-17 11:08:00,
2013-09-17 07:18:00,36.1,35.1,30.39,South,185,0.0,0.0,96,0.00,,,0.00,11,Wunderground v.1.15,2013-09-17 11:18:00,
2013-09-17 07:23:00,36.2,35.2,30.39,South,185,0.0,0.0,96,0.00,,,0.00,12,Wunderground v.1.15,2013-09-17 11:23:00,
2013-09-17 07:28:00,36.3,35.3,30.39,South,185,0.0,0.0,96,0.00,,,0.00,12,Wunderground v.1.15,2013-09-17 11:28:00,
2013-09-17 07:33:00,36.6,35.8,30.40,South,185,0.0,0.0,97,0.00,,,0.00,12,Wunderground v.1.15,2013-09-17 11:33:00,
2013-09-17 07:38:00,36.9,36.1,30.40,South,185,0.0,0.0,97,0.00,,,0.00,14,Wunderground v.1.15,2013-09-17 11:38:00,
2013-09-17 07:48:00,37.4,36.6,30.40,South,185,0.0,0.0,97,0.00,,,0.00,16,Wunderground v.1.15,2013-09-17 11:48:00,
2013-09-17 07:53:00,37.7,37.2,30.40,South,185,0.0,0.0,98,0.00,,,0.00,18,Wunderground v.1.15,2013-09-17 11:53:00,
2013-09-17 07:58:00,38.1,37.6,30.40,South,185,0.0,0.0,98,0.00,,,0.00,18,Wunderground v.1.15,2013-09-17 11:58:00,
2013-09-17 08:03:00,38.8,38.3,30.40,South,185,0.0,0.0,98,0.00,,,0.00,19,Wunderground v.1.15,2013-09-17 12:03:00,
2013-09-17 08:08:00,39.4,38.9,30.40,South,185,0.0,0.0,98,0.00,,,0.00,19,Wunderground v.1.15,2013-09-17 12:08:00,
2013-09-17 08:18:00,40.2,39.7,30.41,South,185,0.0,0.0,98,0.00,,,0.00,21,Wunderground v.1.15,2013-09-17 12:18:00,
2013-09-17 08:23:00,40.6,40.1,30.41,South,185,0.0,0.0,98,0.00,,,0.00,23,Wunderground v.1.15,2013-09-17 12:23:00,
2013-09-17 08:28:00,41.0,40.7,30.41,WSW,242,0.0,0.0,99,0.00,,,0.00,23,Wunderground v.1.15,2013-09-17 12:28:00,
2013-09-17 08:33:00,41.4,41.1,30.41,NW,319,0.0,0.0,99,0.00,,,0.00,25,Wunderground v.1.15,2013-09-17 12:33:00,
2013-09-17 08:38:00,42.0,41.7,30.41,SW,221,0.0,0.0,99,0.00,,,0.00,26,Wunderground v.1.15,2013-09-17 12:38:00,
2013-09-17 08:43:00,42.5,42.2,30.42,SW,218,0.0,0.0,99,0.00,,,0.00,26,Wunderground v.1.15,2013-09-17 12:43:00,
2013-09-17 08:53:00,43.6,43.3,30.42,SW,218,0.0,0.0,99,0.00,,,0.00,30,Wunderground v.1.15,2013-09-17 12:53:00,
2013-09-17 08:58:00,44.1,43.6,30.42,SSW,196,0.0,0.0,98,0.00,,,0.00,30,Wunderground v.1.15,2013-09-17 12:58:00,
2013-09-17 09:03:00,44.4,43.9,30.42,SSW,196,0.0,0.0,98,0.00,,,0.00,33,Wunderground v.1.15,2013-09-17 13:03:00,
2013-09-17 09:08:00,44.8,44.0,30.42,NW,306,0.0,0.0,97,0.00,,,0.00,33,Wunderground v.1.15,2013-09-17 13:08:00,
2013-09-17 09:18:00,46.5,43.4,30.42,NW,304,1.0,1.0,89,0.00,,,0.00,39,Wunderground v.1.15,2013-09-17 13:18:00,
2013-09-17 09:23:00,47.1,44.3,30.41,NW,304,0.0,0.0,90,0.00,,,0.00,40,Wunderground v.1.15,2013-09-17 13:23:00,
2013-09-17 09:28:00,47.3,44.2,30.41,NW,304,0.0,0.0,89,0.00,,,0.00,42,Wunderground v.1.15,2013-09-17 13:28:00,
2013-09-17 09:33:00,47.8,44.1,30.42,West,281,0.0,0.0,87,0.00,,,0.00,44,Wunderground v.1.15,2013-09-17 13:33:00,
2013-09-17 09:38:00,48.4,44.7,30.42,WNW,300,1.0,1.0,87,0.00,,,0.00,46,Wunderground v.1.15,2013-09-17 13:38:00,
2013-09-17 09:43:00,49.2,43.0,30.42,NW,317,1.0,1.0,79,0.00,,,0.00,49,Wunderground v.1.15,2013-09-17 13:43:00,
2013-09-17 09:53:00,50.6,42.3,30.42,NW,319,1.0,2.0,73,0.00,,,0.00,54,Wunderground v.1.15,2013-09-17 13:53:00,
2013-09-17 09:58:00,50.8,42.1,30.42,NW,308,1.0,2.0,72,0.00,,,0.00,56,Wunderground v.1.15,2013-09-17 13:58:00,
2013-09-17 10:03:00,51.3,41.5,30.43,WNW,303,1.0,3.0,69,0.00,,,0.01,56,Wunderground v.1.15,2013-09-17 14:03:00,
2013-09-17 10:08:00,51.5,43.5,30.42,NNW,340,1.0,3.0,74,0.00,,,0.01,65,Wunderground v.1.15,2013-09-17 14:08:00,
2013-09-17 10:13:00,51.6,41.8,30.42,NNW,336,0.0,2.0,69,0.00,,,0.01,62,Wunderground v.1.15,2013-09-17 14:13:00,
2013-09-17 10:18:00,51.9,42.0,30.42,WNW,296,1.0,2.0,69,0.00,,,0.01,62,Wunderground v.1.15,2013-09-17 14:18:00,
2013-09-17 10:28:00,52.4,42.9,30.42,NNE,23,1.0,1.0,70,0.00,,,0.01,475,Wunderground v.1.15,2013-09-17 14:28:00,
2013-09-17 10:33:00,52.5,42.2,30.42,NNW,342,1.0,6.0,68,0.00,,,0.01,506,Wunderground v.1.15,2013-09-17 14:33:00,
2013-09-17 10:38:00,52.8,42.1,30.42,NW,324,2.0,6.0,67,0.00,,,0.01,615,Wunderground v.1.15,2013-09-17 14:38:00,
2013-09-17 10:43:00,53.2,42.1,30.43,WNW,302,3.0,3.0,66,0.00,,,0.01,297,Wunderground v.1.15,2013-09-17 14:43:00,
2013-09-17 10:53:00,53.5,41.2,30.42,NW,316,2.0,2.0,63,0.00,,,0.01,98,Wunderground v.1.15,2013-09-17 14:53:00,
2013-09-17 10:58:00,53.8,41.9,30.42,NNW,336,2.0,2.0,64,0.00,,,0.01,79,Wunderground v.1.15,2013-09-17 14:58:00,
2013-09-17 11:08:00,54.2,43.1,30.42,NNW,338,0.0,2.0,66,0.00,,,0.01,81,Wunderground v.1.15,2013-09-17 15:08:00,
2013-09-17 11:18:00,54.6,45.8,30.42,NW,313,0.0,0.0,72,0.00,,,0.01,88,Wunderground v.1.15,2013-09-17 15:18:00,
2013-09-17 11:23:00,54.7,46.9,30.42,NW,321,1.0,1.0,75,0.00,,,0.01,97,Wunderground v.1.15,2013-09-17 15:23:00,
2013-09-17 11:28:00,55.0,43.4,30.42,WNW,284,1.0,1.0,65,0.00,,,0.01,195,Wunderground v.1.15,2013-09-17 15:28:00,
2013-09-17 11:33:00,55.6,44.4,30.42,North,355,1.0,2.0,66,0.00,,,0.01,244,Wunderground v.1.15,2013-09-17 15:33:00,
2013-09-17 11:38:00,55.8,43.8,30.41,NNW,344,1.0,2.0,64,0.00,,,0.01,724,Wunderground v.1.15,2013-09-17 15:38:00,
2013-09-17 11:43:00,55.8,43.8,30.41,NNW,340,1.0,2.0,64,0.00,,,0.01,726,Wunderground v.1.15,2013-09-17 15:43:00,
2013-09-17 11:53:00,56.5,43.6,30.41,WNW,296,1.0,1.0,62,0.00,,,0.01,729,Wunderground v.1.15,2013-09-17 15:53:00,
2013-09-17 11:58:00,57.2,44.7,30.41,South,190,1.0,1.0,63,0.00,,,0.01,729,Wunderground v.1.15,2013-09-17 15:58:00,
2013-09-17 12:03:00,57.7,43.9,30.41,NNE,19,1.0,1.0,60,0.00,,,0.01,733,Wunderground v.1.15,2013-09-17 16:03:00,
2013-09-17 12:08:00,58.3,44.9,30.41,SSE,168,1.0,2.0,61,0.00,,,0.01,728,Wunderground v.1.15,2013-09-17 16:08:00,
2013-09-17 12:18:00,59.0,46.4,30.41,West,273,1.0,1.0,63,0.00,,,0.01,740,Wunderground v.1.15,2013-09-17 16:18:00,
2013-09-17 12:23:00,59.3,45.8,30.41,SSW,211,0.0,1.0,61,0.00,,,0.01,733,Wunderground v.1.15,2013-09-17 16:23:00,
2013-09-17 12:33:00,59.8,45.4,30.41,SSW,195,1.0,1.0,59,0.00,,,0.01,744,Wunderground v.1.15,2013-09-17 16:33:00,
2013-09-17 12:38:00,60.0,44.3,30.41,North,10,1.0,1.0,56,0.00,,,0.01,744,Wunderground v.1.15,2013-09-17 16:38:00,
2013-09-17 12:43:00,59.8,45.9,30.41,SE,124,1.0,1.0,60,0.00,,,0.01,737,Wunderground v.1.15,2013-09-17 16:43:00,
2013-09-17 12:48:00,60.0,46.5,30.41,NNW,329,1.0,1.0,61,0.00,,,0.01,738,Wunderground v.1.15,2013-09-17 16:48:00,
2013-09-17 12:53:00,60.7,47.2,30.41,NNE,24,0.0,2.0,61,0.00,,,0.01,737,Wunderground v.1.15,2013-09-17 16:53:00,
2013-09-17 12:58:00,60.4,48.6,30.40,North,5,1.0,2.0,65,0.00,,,0.01,738,Wunderground v.1.15,2013-09-17 16:58:00,
2013-09-17 13:03:00,60.2,47.1,30.40,NNW,339,1.0,1.0,62,0.00,,,0.01,728,Wunderground v.1.15,2013-09-17 17:03:00,
2013-09-17 13:13:00,59.7,44.0,30.40,NNW,344,1.0,1.0,56,0.00,,,0.01,721,Wunderground v.1.15,2013-09-17 17:13:00,
2013-09-17 13:18:00,60.4,47.3,30.40,NNW,331,1.0,1.0,62,0.00,,,0.01,721,Wunderground v.1.15,2013-09-17 17:18:00,
2013-09-17 13:23:00,61.4,46.0,30.39,NW,306,1.0,1.0,57,0.00,,,0.01,721,Wunderground v.1.15,2013-09-17 17:23:00,
2013-09-17 13:28:00,61.8,47.3,30.39,NW,323,1.0,1.0,59,0.00,,,0.01,722,Wunderground v.1.15,2013-09-17 17:28:00,
2013-09-17 13:33:00,62.1,43.7,30.39,North,355,1.0,1.0,51,0.00,,,0.01,708,Wunderground v.1.15,2013-09-17 17:33:00,
2013-09-17 13:43:00,62.1,47.6,30.38,NNW,334,1.0,2.0,59,0.00,,,0.01,700,Wunderground v.1.15,2013-09-17 17:43:00,
2013-09-17 13:48:00,61.9,46.0,30.38,NNW,333,1.0,3.0,56,0.00,,,0.01,698,Wunderground v.1.15,2013-09-17 17:48:00,
2013-09-17 13:58:00,62.4,46.0,30.37,NNW,331,0.0,1.0,55,0.00,,,0.01,679,Wunderground v.1.15,2013-09-17 17:58:00,
2013-09-17 14:03:00,62.6,47.1,30.37,NNW,331,0.0,0.0,57,0.00,,,0.01,675,Wunderground v.1.15,2013-09-17 18:03:00,
2013-09-17 14:08:00,62.8,47.3,30.37,NNW,339,0.0,0.0,57,0.00,,,0.01,670,Wunderground v.1.15,2013-09-17 18:08:00,
2013-09-17 14:18:00,63.1,49.0,30.37,WNW,302,1.0,1.0,60,0.00,,,0.01,659,Wunderground v.1.15,2013-09-17 18:18:00,
2013-09-17 14:28:00,64.1,47.6,30.37,WNW,303,0.0,1.0,55,0.00,,,0.01,643,Wunderground v.1.15,2013-09-17 18:28:00,
2013-09-17 14:33:00,64.3,46.3,30.37,WNW,303,0.0,0.0,52,0.00,,,0.01,635,Wunderground v.1.15,2013-09-17 18:33:00,
2013-09-17 14:43:00,64.4,46.9,30.36,WNW,282,1.0,1.0,53,0.00,,,0.01,617,Wunderground v.1.15,2013-09-17 18:43:00,
2013-09-17 14:48:00,65.0,46.4,30.36,SW,220,1.0,1.0,51,0.00,,,0.01,606,Wunderground v.1.15,2013-09-17 18:48:00,
2013-09-17 14:53:00,65.0,45.4,30.36,SE,144,1.0,2.0,49,0.00,,,0.01,599,Wunderground v.1.15,2013-09-17 18:53:00,
2013-09-17 14:58:00,65.0,46.9,30.36,SE,140,1.0,2.0,52,0.00,,,0.01,594,Wunderground v.1.15,2013-09-17 18:58:00,
2013-09-17 15:08:00,65.5,49.4,30.35,WSW,252,1.0,2.0,56,0.00,,,0.01,580,Wunderground v.1.15,2013-09-17 19:08:00,
2013-09-17 15:18:00,65.5,47.9,30.35,SSW,202,1.0,1.0,53,0.00,,,0.01,559,Wunderground v.1.15,2013-09-17 19:18:00,
2013-09-17 15:28:00,65.9,47.3,30.35,NW,311,0.0,0.0,51,0.00,,,0.01,540,Wunderground v.1.15,2013-09-17 19:28:00,
2013-09-17 15:33:00,65.5,48.9,30.35,NW,311,0.0,1.0,55,0.00,,,0.01,527,Wunderground v.1.15,2013-09-17 19:33:00,
2013-09-17 15:38:00,65.4,45.7,30.34,South,182,0.0,4.0,49,0.00,,,0.01,515,Wunderground v.1.15,2013-09-17 19:38:00,
2013-09-17 15:48:00,65.8,47.2,30.34,South,182,0.0,0.0,51,0.00,,,0.01,494,Wunderground v.1.15,2013-09-17 19:48:00,
2013-09-17 15:53:00,65.9,48.8,30.34,South,182,0.0,0.0,54,0.00,,,0.01,490,Wunderground v.1.15,2013-09-17 19:53:00,
2013-09-17 15:58:00,65.9,46.2,30.34,South,184,0.0,0.0,49,0.00,,,0.01,487,Wunderground v.1.15,2013-09-17 19:58:00,
2013-09-17 16:03:00,66.0,47.3,30.34,South,184,0.0,0.0,51,0.00,,,0.01,478,Wunderground v.1.15,2013-09-17 20:03:00,
2013-09-17 16:08:00,66.1,47.4,30.34,South,184,0.0,0.0,51,0.00,,,0.01,457,Wunderground v.1.15,2013-09-17 20:08:00,
2013-09-17 16:18:00,65.8,49.2,30.34,South,184,0.0,0.0,55,0.00,,,0.01,434,Wunderground v.1.15,2013-09-17 20:18:00,
2013-09-17 16:23:00,65.4,48.3,30.34,South,184,0.0,0.0,54,0.00,,,0.01,424,Wunderground v.1.15,2013-09-17 20:23:00,
2013-09-17 16:28:00,65.2,48.1,30.34,South,184,0.0,1.0,54,0.00,,,0.01,406,Wunderground v.1.15,2013-09-17 20:28:00,
2013-09-17 16:33:00,64.8,52.3,30.33,South,184,1.0,1.0,64,0.00,,,0.01,388,Wunderground v.1.15,2013-09-17 20:33:00,
2013-09-17 16:43:00,64.7,53.1,30.33,South,184,1.0,1.0,66,0.00,,,0.01,283,Wunderground v.1.15,2013-09-17 20:43:00,
2013-09-17 16:48:00,64.2,50.5,30.33,South,184,1.0,2.0,61,0.00,,,0.01,88,Wunderground v.1.15,2013-09-17 20:48:00,
2013-09-17 16:53:00,63.8,49.2,30.33,South,184,1.0,1.0,59,0.00,,,0.01,114,Wunderground v.1.15,2013-09-17 20:53:00,
2013-09-17 17:03:00,63.0,49.3,30.33,South,184,0.0,0.0,61,0.00,,,0.01,39,Wunderground v.1.15,2013-09-17 21:03:00,
2013-09-17 17:08:00,62.4,48.3,30.33,South,184,0.0,0.0,60,0.00,,,0.01,37,Wunderground v.1.15,2013-09-17 21:08:00,
2013-09-17 17:18:00,61.2,50.6,30.33,South,184,0.0,0.0,68,0.00,,,0.01,32,Wunderground v.1.15,2013-09-17 21:18:00,
2013-09-17 17:23:00,60.8,49.4,30.33,South,184,0.0,0.0,66,0.00,,,0.01,30,Wunderground v.1.15,2013-09-17 21:23:00,
2013-09-17 17:28:00,60.6,49.6,30.32,South,184,0.0,0.0,67,0.00,,,0.01,25,Wunderground v.1.15,2013-09-17 21:28:00,
2013-09-17 17:33:00,60.2,50.8,30.33,South,184,0.0,0.0,71,0.00,,,0.01,23,Wunderground v.1.15,2013-09-17 21:33:00,
2013-09-17 17:43:00,59.4,50.4,30.32,South,184,0.0,0.0,72,0.00,,,0.01,16,Wunderground v.1.15,2013-09-17 21:43:00,
2013-09-17 17:48:00,59.0,50.7,30.32,South,184,0.0,0.0,74,0.00,,,0.01,14,Wunderground v.1.15,2013-09-17 21:48:00,
2013-09-17 17:53:00,58.6,51.4,30.32,South,184,0.0,0.0,77,0.00,,,0.01,12,Wunderground v.1.15,2013-09-17 21:53:00,
2013-09-17 17:58:00,58.3,51.8,30.33,South,184,0.0,0.0,79,0.00,,,0.01,11,Wunderground v.1.15,2013-09-17 21:58:00,
2013-09-17 18:03:00,57.9,51.4,30.33,South,184,0.0,0.0,79,0.00,,,0.01,9,Wunderground v.1.15,2013-09-17 22:03:00,
2013-09-17 18:08:00,57.5,51.4,30.32,South,184,0.0,0.0,80,0.00,,,0.01,9,Wunderground v.1.15,2013-09-17 22:08:00,
2013-09-17 18:18:00,56.8,50.7,30.32,South,184,0.0,0.0,80,0.00,,,0.01,5,Wunderground v.1.15,2013-09-17 22:18:00,
2013-09-17 18:23:00,56.4,50.6,30.32,South,184,0.0,0.0,81,0.00,,,0.01,5,Wunderground v.1.15,2013-09-17 22:23:00,
2013-09-17 18:28:00,56.1,51.0,30.32,South,184,0.0,0.0,83,0.00,,,0.01,0,Wunderground v.1.15,2013-09-17 22:28:00,
2013-09-17 18:33:00,55.7,50.9,30.32,South,184,0.0,0.0,84,0.00,,,0.01,0,Wunderground v.1.15,2013-09-17 22:33:00,
2013-09-17 18:38:00,55.4,50.6,30.32,South,184,0.0,0.0,84,0.00,,,0.01,0,Wunderground v.1.15,2013-09-17 22:38:00,
2013-09-17 18:48:00,54.6,50.2,30.32,South,184,0.0,0.0,85,0.00,,,0.01,0,Wunderground v.1.15,2013-09-17 22:48:00,
2013-09-17 18:53:00,54.3,50.2,30.32,South,184,0.0,0.0,86,0.00,,,0.01,0,Wunderground v.1.15,2013-09-17 22:53:00,
2013-09-17 18:58:00,53.9,49.8,30.32,South,184,0.0,0.0,86,0.00,,,0.01,0,Wunderground v.1.15,2013-09-17 22:58:00,
2013-09-17 19:03:00,53.5,49.4,30.32,South,184,0.0,0.0,86,0.00,,,0.01,0,Wunderground v.1.15,2013-09-17 23:03:00,
2013-09-17 19:13:00,52.8,49.0,30.32,South,184,0.0,0.0,87,0.00,,,0.01,0,Wunderground v.1.15,2013-09-17 23:13:00,
2013-09-17 19:18:00,52.6,49.1,30.32,South,184,0.0,0.0,88,0.00,,,0.01,0,Wunderground v.1.15,2013-09-17 23:18:00,
2013-09-17 19:23:00,52.3,48.9,30.32,South,184,0.0,0.0,88,0.00,,,0.01,0,Wunderground v.1.15,2013-09-17 23:23:00,
2013-09-17 19:28:00,51.9,48.8,30.32,South,184,0.0,0.0,89,0.00,,,0.01,0,Wunderground v.1.15,2013-09-17 23:28:00,
2013-09-17 19:33:00,51.6,48.5,30.32,South,184,0.0,0.0,89,0.00,,,0.01,0,Wunderground v.1.15,2013-09-17 23:33:00,
2013-09-17 19:48:00,50.6,47.8,30.32,South,184,0.0,0.0,90,0.00,,,0.01,0,Wunderground v.1.15,2013-09-17 23:48:00,
2013-09-17 19:53:00,50.4,47.9,30.32,South,184,0.0,0.0,91,0.00,,,0.01,0,Wunderground v.1.15,2013-09-17 23:53:00,
2013-09-17 19:58:00,50.1,47.6,30.32,South,184,0.0,0.0,91,0.00,,,0.01,0,Wunderground v.1.15,2013-09-17 23:58:00,
2013-09-17 20:03:00,49.7,47.2,30.33,South,184,0.0,0.0,91,0.00,,,0.01,0,Wunderground v.1.15,2013-09-18 00:03:00,
2013-09-17 20:13:00,49.2,47.0,30.33,South,184,0.0,0.0,92,0.00,,,0.01,0,Wunderground v.1.15,2013-09-18 00:13:00,
2013-09-17 20:18:00,48.9,46.7,30.33,South,184,0.0,0.0,92,0.00,,,0.01,0,Wunderground v.1.15,2013-09-18 00:18:00,
2013-09-17 20:23:00,48.8,46.6,30.33,South,184,0.0,0.0,92,0.00,,,0.01,0,Wunderground v.1.15,2013-09-18 00:23:00,
2013-09-17 20:28:00,48.6,46.7,30.33,South,184,0.0,0.0,93,0.00,,,0.01,0,Wunderground v.1.15,2013-09-18 00:28:00,
2013-09-17 20:33:00,48.2,46.0,30.33,South,184,0.0,0.0,92,0.00,,,0.01,0,Wunderground v.1.15,2013-09-18 00:33:00,
2013-09-17 20:43:00,47.9,46.0,30.32,South,184,0.0,0.0,93,0.00,,,0.01,0,Wunderground v.1.15,2013-09-18 00:43:00,
2013-09-17 20:48:00,47.8,45.9,30.32,South,184,0.0,0.0,93,0.00,,,0.01,0,Wunderground v.1.15,2013-09-18 00:48:00,
2013-09-17 20:53:00,47.6,45.7,30.33,South,184,0.0,0.0,93,0.00,,,0.01,0,Wunderground v.1.15,2013-09-18 00:53:00,
2013-09-17 20:58:00,47.4,45.5,30.33,South,184,0.0,0.0,93,0.00,,,0.01,0,Wunderground v.1.15,2013-09-18 00:58:00,
2013-09-17 21:03:00,47.2,45.3,30.33,South,184,0.0,0.0,93,0.00,,,0.01,0,Wunderground v.1.15,2013-09-18 01:03:00,
2013-09-17 21:08:00,47.1,45.2,30.33,South,184,0.0,0.0,93,0.00,,,0.01,0,Wunderground v.1.15,2013-09-18 01:08:00,
2013-09-17 21:18:00,46.7,44.8,30.33,South,184,0.0,0.0,93,0.00,,,0.01,0,Wunderground v.1.15,2013-09-18 01:18:00,
2013-09-17 21:23:00,46.5,44.6,30.33,South,184,0.0,0.0,93,0.00,,,0.01,0,Wunderground v.1.15,2013-09-18 01:23:00,
2013-09-17 21:33:00,46.3,44.7,30.33,South,184,0.0,0.0,94,0.00,,,0.01,0,Wunderground v.1.15,2013-09-18 01:33:00,
2013-09-17 21:38:00,46.1,44.2,30.33,South,184,0.0,0.0,93,0.00,,,0.01,0,Wunderground v.1.15,2013-09-18 01:38:00,
2013-09-17 21:43:00,46.0,44.4,30.33,South,184,0.0,0.0,94,0.00,,,0.01,0,Wunderground v.1.15,2013-09-18 01:43:00,
2013-09-17 21:53:00,45.7,44.1,30.32,South,184,0.0,0.0,94,0.00,,,0.01,0,Wunderground v.1.15,2013-09-18 01:53:00,
2013-09-17 21:58:00,45.4,43.8,30.32,South,184,0.0,0.0,94,0.00,,,0.01,0,Wunderground v.1.15,2013-09-18 01:58:00,
2013-09-17 22:03:00,45.2,43.6,30.32,South,184,0.0,0.0,94,0.00,,,0.01,0,Wunderground v.1.15,2013-09-18 02:03:00,
2013-09-17 22:08:00,45.1,43.5,30.32,South,184,0.0,0.0,94,0.00,,,0.01,0,Wunderground v.1.15,2013-09-18 02:08:00,
2013-09-17 22:18:00,44.9,43.3,30.32,South,184,0.0,0.0,94,0.00,,,0.01,0,Wunderground v.1.15,2013-09-18 02:18:00,
2013-09-17 22:23:00,44.7,43.1,30.32,South,184,0.0,0.0,94,0.00,,,0.01,0,Wunderground v.1.15,2013-09-18 02:23:00,
2013-09-17 22:28:00,44.6,43.0,30.32,South,184,0.0,0.0,94,0.00,,,0.01,0,Wunderground v.1.15,2013-09-18 02:28:00,
2013-09-17 22:33:00,44.5,42.9,30.32,South,184,0.0,0.0,94,0.00,,,0.01,0,Wunderground v.1.15,2013-09-18 02:33:00,
2013-09-17 22:38:00,44.3,43.0,30.32,South,184,0.0,0.0,95,0.00,,,0.01,0,Wunderground v.1.15,2013-09-18 02:38:00,
2013-09-17 22:43:00,44.2,42.9,30.32,South,184,0.0,0.0,95,0.00,,,0.01,0,Wunderground v.1.15,2013-09-18 02:43:00,
2013-09-17 22:53:00,44.0,42.7,30.32,South,184,0.0,0.0,95,0.00,,,0.01,0,Wunderground v.1.15,2013-09-18 02:53:00,
2013-09-17 22:58:00,43.8,42.5,30.32,South,184,0.0,0.0,95,0.00,,,0.01,0,Wunderground v.1.15,2013-09-18 02:58:00,
2013-09-17 23:08:00,43.6,42.3,30.32,South,184,0.0,0.0,95,0.00,,,0.01,0,Wunderground v.1.15,2013-09-18 03:08:00,
2013-09-17 23:13:00,43.4,42.1,30.32,South,184,0.0,0.0,95,0.00,,,0.01,0,Wunderground v.1.15,2013-09-18 03:13:00,
2013-09-17 23:18:00,43.3,42.0,30.33,South,184,0.0,0.0,95,0.00,,,0.01,0,Wunderground v.1.15,2013-09-18 03:18:00,
2013-09-17 23:23:00,43.1,41.8,30.32,South,184,0.0,0.0,95,0.00,,,0.01,0,Wunderground v.1.15,2013-09-18 03:23:00,
2013-09-17 23:28:00,43.0,41.7,30.32,South,184,0.0,0.0,95,0.00,,,0.01,0,Wunderground v.1.15,2013-09-18 03:28:00,
2013-09-17 23:33:00,42.8,41.5,30.32,South,184,0.0,0.0,95,0.00,,,0.01,0,Wunderground v.1.15,2013-09-18 03:33:00,
2013-09-17 23:53:00,42.6,41.3,30.32,South,184,0.0,0.0,95,0.00,,,0.01,0,Wunderground v.1.15,2013-09-18 03:53:00,
2013-09-17 23:58:00,42.4,41.1,30.33,South,184,0.0,0.0,95,0.00,,,0.00,0,Wunderground v.1.15,2013-09-18 03:58:00,